Terminal Aerodrome Forecast
Issued by NWS

Home | Current Version | Previous Version | Text Only | Print | Product List | Glossary On
Versions: 1 2 3 4 5 6 7 8 9 10 11 12 13 14 15 16 17 18 19 20 21 22 23 24 25
000
FTPA31 PHFO 212300 RRA
TAFOGG
TAF
PHOG 212341Z 2200/2224 03010KT P6SM SCT045
     FM220600 VRB04KT P6SM FEW030 SCT060
     FM222100 02007KT P6SM SCT040 BKN080
      AMD LTD TO WX VIS AND WIND 2209/2216=

USA.gov is the U.S. government's official web portal to all federal, state and local government web resources and services.